Time;durP1;ratioP1;P1;durP2;ratioP2;P2;SDS_P1;SDS_P2;PMS_P1;PMS_P2;Temp;Humidity;BMP_temperature;BMP_pressure;BME280_temperature;BME280_humidity;BME280_pressure;Samples;Min_cycle;Max_cycle;Signal;HPM_P1;HPM_P2
2021/04/11 00:00:37;;;;;;;1.67;1.00;;;14.60;8.40;;;;;;5062097;28;20487;-80
2021/04/11 00:03:08;;;;;;;1.57;0.80;;;14.50;6.90;;;;;;5054584;28;20482;-82
2021/04/11 00:05:37;;;;;;;2.20;1.10;;;14.70;9.00;;;;;;5050753;28;20470;-80
2021/04/11 00:08:08;;;;;;;1.13;0.90;;;14.70;8.80;;;;;;5046078;28;20557;-77
2021/04/11 00:10:38;;;;;;;2.03;0.87;;;14.70;9.30;;;;;;5051153;28;20463;-80
2021/04/11 00:13:07;;;;;;;0.83;0.83;;;14.70;8.60;;;;;;5047900;28;20466;-79
2021/04/11 00:15:35;;;;;;;0.90;0.90;;;14.50;6.70;;;;;;5049733;28;20466;-79
2021/04/11 00:18:02;;;;;;;1.10;1.00;;;14.60;9.20;;;;;;5052948;28;20455;-79
2021/04/11 00:20:30;;;;;;;1.80;1.00;;;14.50;8.00;;;;;;5049451;28;20478;-79
2021/04/11 00:22:58;;;;;;;1.37;1.20;;;14.40;7.20;;;;;;5051573;28;20486;-79
2021/04/11 00:25:28;;;;;;;1.10;1.00;;;14.50;8.40;;;;;;5054725;28;21357;-79
2021/04/11 00:27:56;;;;;;;1.00;0.90;;;14.40;8.10;;;;;;5054301;28;20456;-80
2021/04/11 00:30:24;;;;;;;1.23;1.13;;;14.40;19.20;;;;;;5051407;28;20461;-79
2021/04/11 00:32:55;;;;;;;1.67;0.80;;;14.30;7.50;;;;;;5050255;28;20474;-79
2021/04/11 00:35:22;;;;;;;1.00;0.90;;;14.40;8.10;;;;;;5050293;28;20504;-80
2021/04/11 00:37:50;;;;;;;1.13;0.90;;;14.40;7.40;;;;;;5058808;28;20459;-78
2021/04/11 00:40:20;;;;;;;1.00;0.90;;;14.30;8.30;;;;;;5058472;28;21088;-79
2021/04/11 00:42:53;;;;;;;1.10;1.00;;;14.20;7.60;;;;;;5054347;28;20495;-80
2021/04/11 00:45:29;;;;;;;1.93;1.30;;;14.30;8.80;;;;;;5042622;28;20463;-80
2021/04/11 00:47:57;;;;;;;1.00;1.00;;;14.40;8.60;;;;;;5040610;28;20461;-81
2021/04/11 00:50:25;;;;;;;1.20;0.80;;;14.40;9.90;;;;;;5057081;28;20455;-80
2021/04/11 00:52:53;;;;;;;1.00;0.90;;;14.50;9.80;;;;;;5055501;28;20494;-80
2021/04/11 00:55:23;;;;;;;1.23;1.00;;;14.50;10.00;;;;;;5055519;28;20474;-79
2021/04/11 00:57:51;;;;;;;1.17;1.00;;;14.50;9.60;;;;;;5050717;28;20825;-79
2021/04/11 01:00:22;;;;;;;1.57;1.00;;;14.40;9.30;;;;;;5044576;28;20475;-80
2021/04/11 01:02:49;;;;;;;1.20;1.10;;;14.40;9.50;;;;;;5048922;28;20608;-80
2021/04/11 01:05:19;;;;;;;0.90;0.87;;;14.50;10.60;;;;;;5052172;28;20463;-80
2021/04/11 01:07:48;;;;;;;1.83;1.07;;;14.40;9.70;;;;;;5041933;28;20459;-80
2021/04/11 01:10:20;;;;;;;1.10;1.00;;;14.40;8.80;;;;;;5046349;28;20467;-79
2021/04/11 01:12:48;;;;;;;1.00;0.90;;;14.20;7.60;;;;;;5050892;28;20929;-80
2021/04/11 01:15:20;;;;;;;0.90;0.90;;;14.10;8.00;;;;;;5046012;28;20451;-79
2021/04/11 01:17:48;;;;;;;1.20;0.93;;;14.20;8.50;;;;;;5052385;28;20456;-80
2021/04/11 01:20:17;;;;;;;1.00;0.90;;;14.20;8.50;;;;;;5046924;28;20477;-79
2021/04/11 01:22:58;;;;;;;1.03;0.97;;;14.20;8.50;;;;;;5054316;28;20520;-80
2021/04/11 01:25:31;;;;;;;0.90;0.90;;;14.10;9.10;;;;;;5045309;28;20452;-81
2021/04/11 01:28:00;;;;;;;1.30;1.20;;;14.20;9.80;;;;;;5050659;28;21316;-79
2021/04/11 01:30:31;;;;;;;2.23;0.90;;;14.20;10.60;;;;;;5055397;28;20444;-80
2021/04/11 01:32:59;;;;;;;1.10;1.00;;;14.20;11.00;;;;;;5042955;28;20468;-80
2021/04/11 01:35:29;;;;;;;1.63;1.00;;;14.30;10.60;;;;;;5048864;28;20830;-80
2021/04/11 01:37:58;;;;;;;1.50;1.00;;;14.30;12.40;;;;;;5046035;28;20467;-80
2021/04/11 01:40:33;;;;;;;0.80;0.80;;;14.30;10.80;;;;;;5047918;28;20926;-79
2021/04/11 01:43:01;;;;;;;0.90;0.90;;;14.20;11.20;;;;;;5052185;28;20561;-79
2021/04/11 01:45:30;;;;;;;1.27;0.90;;;14.20;11.60;;;;;;5041353;28;20470;-80
2021/04/11 01:47:57;;;;;;;1.27;0.80;;;14.20;11.00;;;;;;5046352;28;20460;-79
2021/04/11 01:50:24;;;;;;;1.23;1.00;;;14.30;12.20;;;;;;5042208;28;20477;-80
2021/04/11 01:52:52;;;;;;;0.90;0.90;;;14.20;13.10;;;;;;5044514;28;20709;-78
2021/04/11 01:55:21;;;;;;;3.50;1.10;;;14.30;12.60;;;;;;5043673;28;20469;-78
2021/04/11 01:57:54;;;;;;;1.73;0.90;;;14.20;11.80;;;;;;5049329;28;20459;-78
2021/04/11 02:00:24;;;;;;;0.77;0.77;;;14.10;12.60;;;;;;5043296;28;20516;-77
2021/04/11 02:02:54;;;;;;;1.27;0.90;;;14.00;11.20;;;;;;5042874;28;20482;-78
2021/04/11 02:05:21;;;;;;;2.13;0.80;;;14.00;11.30;;;;;;5043159;28;20472;-78
2021/04/11 02:07:51;;;;;;;1.63;1.00;;;14.00;12.00;;;;;;5044415;28;20974;-79
2021/04/11 02:10:23;;;;;;;1.27;1.03;;;14.00;11.40;;;;;;5043636;28;20809;-79
2021/04/11 02:12:53;;;;;;;2.27;1.10;;;13.90;11.70;;;;;;5044120;28;20481;-80
2021/04/11 02:15:24;;;;;;;2.00;1.03;;;14.00;12.40;;;;;;5049321;28;21283;-80
2021/04/11 02:17:53;;;;;;;0.90;0.90;;;14.00;13.00;;;;;;5044274;28;20463;-80
2021/04/11 02:20:22;;;;;;;2.10;0.93;;;14.00;11.70;;;;;;5043942;28;20556;-79
2021/04/11 02:22:50;;;;;;;1.10;0.90;;;14.00;13.80;;;;;;5049586;28;20939;-80
2021/04/11 02:25:20;;;;;;;1.10;1.00;;;13.90;12.60;;;;;;5055321;28;20452;-79
2021/04/11 02:27:48;;;;;;;0.73;0.73;;;14.00;13.50;;;;;;5048210;28;20770;-78
2021/04/11 02:30:18;;;;;;;0.97;0.97;;;14.00;14.30;;;;;;5043561;28;20459;-78
2021/04/11 02:32:45;;;;;;;1.00;0.83;;;14.10;15.00;;;;;;5052586;28;21282;-80
2021/04/11 02:35:15;;;;;;;0.80;0.80;;;14.10;16.40;;;;;;5054325;28;20461;-79
2021/04/11 02:37:44;;;;;;;1.10;1.00;;;14.20;15.50;;;;;;5058953;28;20459;-79
2021/04/11 02:40:20;;;;;;;2.83;1.17;;;14.20;16.40;;;;;;5055788;28;21159;-79
2021/04/11 02:42:47;;;;;;;2.50;0.90;;;14.20;14.80;;;;;;5055960;28;20490;-81
2021/04/11 02:45:20;;;;;;;1.53;1.20;;;14.20;16.50;;;;;;5044311;28;20973;-79
2021/04/11 02:47:47;;;;;;;1.40;1.00;;;14.10;14.50;;;;;;5054637;28;20543;-78
2021/04/11 02:50:15;;;;;;;1.90;1.10;;;14.10;15.70;;;;;;5042510;28;20543;-80
2021/04/11 02:52:47;;;;;;;1.40;1.30;;;14.10;15.80;;;;;;5048582;28;21347;-80
2021/04/11 02:55:17;;;;;;;2.43;1.13;;;14.20;15.60;;;;;;5043211;28;20461;-79
2021/04/11 02:57:44;;;;;;;1.60;1.10;;;14.20;17.10;;;;;;5052937;28;20465;-79
2021/04/11 03:00:18;;;;;;;1.27;1.17;;;14.20;17.10;;;;;;5045757;28;20635;-77
2021/04/11 03:02:46;;;;;;;2.30;1.00;;;14.20;16.40;;;;;;5060707;28;20479;-79
2021/04/11 03:05:17;;;;;;;2.50;1.90;;;14.20;16.60;;;;;;5059751;28;20553;-78
2021/04/11 03:07:47;;;;;;;1.37;1.00;;;14.20;17.00;;;;;;5058733;28;20890;-78
2021/04/11 03:10:20;;;;;;;1.23;1.00;;;14.10;16.10;;;;;;5051355;28;20468;-78
2021/04/11 03:12:50;;;;;;;1.10;1.00;;;14.10;16.50;;;;;;5047986;28;20486;-78
2021/04/11 03:15:18;;;;;;;1.07;1.00;;;14.10;16.20;;;;;;5042988;28;20520;-81
2021/04/11 03:17:49;;;;;;;1.33;1.23;;;14.10;15.20;;;;;;5047750;28;20462;-79
2021/04/11 03:20:20;;;;;;;1.10;0.97;;;14.00;15.50;;;;;;5051653;28;20511;-79
2021/04/11 03:22:50;;;;;;;2.00;0.93;;;13.90;15.10;;;;;;5052649;28;20495;-79
2021/04/11 03:25:19;;;;;;;1.30;1.10;;;13.90;14.70;;;;;;5046635;28;20465;-78
2021/04/11 03:27:50;;;;;;;1.20;1.03;;;13.80;15.20;;;;;;5047463;28;20526;-80
2021/04/11 03:30:23;;;;;;;1.10;1.03;;;13.90;15.00;;;;;;5045502;28;20459;-78
2021/04/11 03:32:54;;;;;;;0.93;0.93;;;13.80;14.40;;;;;;5053070;28;20485;-78
2021/04/11 03:35:26;;;;;;;3.03;1.00;;;13.70;13.20;;;;;;5055348;28;20472;-78
2021/04/11 03:37:57;;;;;;;1.50;0.90;;;13.60;13.00;;;;;;5058464;28;20476;-78
2021/04/11 03:40:27;;;;;;;1.00;1.00;;;13.60;14.10;;;;;;5047409;28;20311;-78
2021/04/11 03:43:00;;;;;;;1.00;0.90;;;13.70;15.00;;;;;;5048992;28;20489;-80
2021/04/11 03:45:30;;;;;;;2.73;1.10;;;13.70;14.20;;;;;;5045300;28;20473;-79
2021/04/11 03:48:05;;;;;;;1.33;0.90;;;13.70;15.30;;;;;;5051560;28;20566;-79
2021/04/11 03:50:37;;;;;;;0.93;0.93;;;13.70;14.60;;;;;;5060074;28;20476;-80
2021/04/11 03:53:10;;;;;;;1.13;0.90;;;13.70;15.10;;;;;;5051210;28;20486;-80
2021/04/11 03:55:42;;;;;;;1.37;0.80;;;13.70;17.00;;;;;;5051156;28;20525;-78
2021/04/11 03:58:15;;;;;;;0.80;0.80;;;13.80;16.70;;;;;;5046906;28;20470;-78
2021/04/11 04:00:47;;;;;;;0.80;0.77;;;13.80;17.00;;;;;;5045082;28;21056;-78
2021/04/11 04:03:19;;;;;;;1.10;0.90;;;13.90;18.70;;;;;;5045682;28;20521;-77
2021/04/11 04:05:48;;;;;;;0.97;0.97;;;14.00;18.70;;;;;;5045232;28;20825;-79
2021/04/11 04:08:16;;;;;;;1.10;1.00;;;14.00;19.00;;;;;;5058478;28;20544;-79
2021/04/11 04:11:00;;;;;;;1.73;0.90;;;14.10;20.20;;;;;;5056078;28;20481;-79
2021/04/11 04:13:43;;;;;;;2.67;0.80;;;14.10;19.20;;;;;;5050741;28;20487;-79
2021/04/11 04:16:18;;;;;;;0.97;0.83;;;14.10;19.40;;;;;;5056719;28;20463;-78
2021/04/11 04:19:02;;;;;;;2.43;1.10;;;14.10;20.90;;;;;;5055485;28;20472;-79
2021/04/11 04:21:58;;;;;;;1.20;1.10;;;14.10;20.40;;;;;;5039488;28;20989;-80
2021/04/11 04:24:39;;;;;;;1.80;1.63;;;14.10;21.50;;;;;;5006372;28;20549;-78
2021/04/11 04:27:28;;;;;;;1.50;1.40;;;14.10;21.60;;;;;;5049664;28;20454;-78
2021/04/11 04:30:09;;;;;;;2.50;1.10;;;14.10;21.20;;;;;;5042460;28;20451;-78
2021/04/11 04:32:52;;;;;;;3.07;1.27;;;14.00;32.40;;;;;;5049962;28;20627;-79
2021/04/11 04:35:34;;;;;;;2.67;1.50;;;14.00;21.90;;;;;;5047635;28;20570;-80
2021/04/11 04:38:14;;;;;;;1.40;1.10;;;14.10;22.00;;;;;;5052942;28;20457;-79
2021/04/11 04:40:47;;;;;;;0.80;0.80;;;14.10;22.00;;;;;;5052321;28;20485;-80
2021/04/11 04:43:23;;;;;;;1.30;0.90;;;14.10;21.80;;;;;;5049628;28;20498;-80
2021/04/11 04:46:04;;;;;;;1.10;1.00;;;14.10;22.50;;;;;;5041201;28;20457;-81
2021/04/11 04:48:35;;;;;;;1.17;0.90;;;14.10;22.30;;;;;;5041366;28;20963;-81
2021/04/11 04:51:08;;;;;;;0.90;0.90;;;14.10;22.70;;;;;;5041659;28;20663;-81
2021/04/11 04:53:40;;;;;;;0.90;0.90;;;14.00;22.30;;;;;;5052378;28;20617;-81
2021/04/11 04:56:11;;;;;;;1.20;1.10;;;14.00;22.50;;;;;;5056670;28;20474;-79
2021/04/11 04:58:42;;;;;;;1.40;0.90;;;14.10;21.90;;;;;;5056926;28;20467;-80
2021/04/11 05:01:16;;;;;;;1.50;0.90;;;14.00;21.90;;;;;;5049056;28;21007;-81
2021/04/11 05:03:47;;;;;;;0.93;0.93;;;14.00;21.50;;;;;;5043897;28;20559;-79
2021/04/11 05:06:20;;;;;;;1.10;1.00;;;13.90;21.90;;;;;;5041936;28;20535;-79
2021/04/11 05:08:55;;;;;;;0.80;0.80;;;14.00;22.40;;;;;;5044422;28;20449;-80
2021/04/11 05:11:26;;;;;;;1.77;1.10;;;14.00;23.10;;;;;;5058921;28;20459;-80
2021/04/11 05:13:58;;;;;;;1.47;1.00;;;14.00;22.50;;;;;;5055149;28;20496;-81
2021/04/11 05:16:29;;;;;;;1.07;0.97;;;14.00;23.00;;;;;;5042949;28;20465;-79
2021/04/11 05:19:01;;;;;;;0.80;0.80;;;14.00;22.70;;;;;;5048475;28;20439;-78
2021/04/11 05:21:35;;;;;;;1.23;0.73;;;14.00;22.90;;;;;;5046428;28;20475;-79
2021/04/11 05:24:08;;;;;;;1.37;0.90;;;14.00;22.60;;;;;;5044219;28;20489;-79
2021/04/11 05:26:42;;;;;;;1.10;0.90;;;14.00;23.70;;;;;;5056608;28;20463;-79
2021/04/11 05:29:17;;;;;;;0.90;0.90;;;14.00;23.00;;;;;;5046148;28;21133;-80
2021/04/11 05:31:45;;;;;;;1.03;0.93;;;14.00;29.20;;;;;;5050943;28;20504;-79
2021/04/11 05:34:17;;;;;;;1.07;0.80;;;13.90;22.70;;;;;;5045811;28;20474;-80
2021/04/11 05:37:05;;;;;;;3.57;0.90;;;13.90;23.70;;;;;;5043511;28;20463;-79
2021/04/11 05:39:45;;;;;;;1.60;1.50;;;14.00;24.10;;;;;;5047454;28;20541;-78
2021/04/11 05:42:18;;;;;;;1.23;1.13;;;14.00;23.80;;;;;;5055624;28;21009;-79
2021/04/11 05:44:52;;;;;;;0.90;0.90;;;14.10;24.10;;;;;;5057999;28;20458;-80
2021/04/11 05:47:29;;;;;;;1.20;1.10;;;14.10;24.00;;;;;;5055452;28;20470;-79
2021/04/11 05:50:02;;;;;;;0.80;0.80;;;14.10;24.20;;;;;;5045412;28;20445;-80
2021/04/11 05:52:36;;;;;;;2.30;1.10;;;14.10;24.70;;;;;;5051772;28;20484;-78
2021/04/11 05:55:05;;;;;;;1.05;0.95;;;14.10;25.30;;;;;;5046178;28;20537;-77
2021/04/11 05:57:37;;;;;;;0.80;0.80;;;14.20;25.30;;;;;;5047267;28;20240;-78
2021/04/11 06:00:09;;;;;;;1.00;0.90;;;14.30;25.80;;;;;;5058354;28;20481;-78
2021/04/11 06:02:45;;;;;;;1.30;1.00;;;14.30;26.90;;;;;;5043621;28;20463;-77
2021/04/11 06:05:19;;;;;;;1.00;0.90;;;14.30;26.10;;;;;;5046404;28;20216;-79
2021/04/11 06:07:52;;;;;;;1.20;1.10;;;14.30;25.80;;;;;;5045489;28;20483;-78
2021/04/11 06:10:24;;;;;;;1.10;1.00;;;14.30;26.50;;;;;;5052530;28;20210;-79
2021/04/11 06:12:57;;;;;;;1.67;1.03;;;14.30;26.20;;;;;;5057342;28;21023;-76
2021/04/11 06:15:28;;;;;;;1.70;1.00;;;14.20;25.40;;;;;;5047268;28;20545;-75
2021/04/11 06:17:57;;;;;;;1.30;0.90;;;14.20;26.20;;;;;;5059533;28;20441;-76
2021/04/11 06:20:26;;;;;;;0.80;0.80;;;14.40;26.60;;;;;;5049222;28;20483;-74
2021/04/11 06:23:04;;;;;;;3.07;1.20;;;14.50;27.30;;;;;;5046430;28;20478;-78
2021/04/11 06:25:37;;;;;;;1.30;0.80;;;14.40;26.90;;;;;;5044387;28;20469;-79
2021/04/11 06:28:12;;;;;;;1.30;1.10;;;14.50;27.90;;;;;;5055160;28;20449;-77
2021/04/11 06:30:49;;;;;;;1.00;0.90;;;14.40;28.20;;;;;;5058857;28;20199;-79
2021/04/11 06:33:21;;;;;;;2.15;1.33;;;14.50;29.90;;;;;;5054317;28;20446;-79
2021/04/11 06:35:53;;;;;;;1.33;1.20;;;14.50;31.10;;;;;;5053973;28;20205;-79
2021/04/11 06:38:26;;;;;;;2.60;1.20;;;14.60;30.70;;;;;;5052240;28;21080;-79
2021/04/11 06:41:10;;;;;;;1.30;0.90;;;14.60;32.00;;;;;;5060868;28;20468;-80
2021/04/11 06:44:14;;;;;;;1.17;1.00;;;14.70;31.00;;;;;;5049987;28;20486;-79
2021/04/11 06:46:58;;;;;;;1.37;1.00;;;14.80;31.60;;;;;;5050877;28;20454;-78
2021/04/11 06:49:47;;;;;;;1.13;1.03;;;14.80;30.80;;;;;;5061033;28;20455;-78
2021/04/11 06:52:30;;;;;;;1.10;1.00;;;14.70;30.80;;;;;;5057901;28;20475;-76
2021/04/11 06:55:30;;;;;;;2.53;1.30;;;14.80;31.10;;;;;;5056013;28;20458;-78
2021/04/11 06:58:13;;;;;;;1.93;1.10;;;14.90;32.40;;;;;;5044216;28;20471;-79
2021/04/11 07:00:49;;;;;;;1.10;1.00;;;15.00;34.80;;;;;;5064271;28;20498;-79
2021/04/11 07:04:10;;;;;;;3.07;1.00;;;15.10;36.20;;;;;;5050840;28;20525;-80
2021/04/11 07:07:16;;;;;;;1.07;0.97;;;15.20;32.50;;;;;;5041998;28;20453;-80
2021/04/11 07:09:57;;;;;;;1.30;0.90;;;15.20;32.00;;;;;;5050572;28;20453;-78
2021/04/11 07:13:02;;;;;;;0.70;0.70;;;15.20;33.10;;;;;;5054182;28;20833;-79
2021/04/11 07:15:50;;;;;;;1.00;0.90;;;15.40;34.40;;;;;;5060860;28;20458;-79
2021/04/11 07:18:49;;;;;;;1.40;0.97;;;15.60;50.80;;;;;;5051124;28;20451;-78
2021/04/11 07:22:01;;;;;;;1.20;1.00;;;15.80;36.10;;;;;;5060189;28;20485;-79
2021/04/11 07:24:45;;;;;;;1.57;1.00;;;15.90;36.40;;;;;;5046322;28;20993;-79
2021/04/11 07:27:34;;;;;;;1.23;1.00;;;16.00;36.10;;;;;;5057295;28;20460;-82
2021/04/11 07:30:16;;;;;;;1.63;0.90;;;16.00;34.50;;;;;;5041731;28;20446;-81
2021/04/11 07:33:16;;;;;;;1.33;0.90;;;16.10;36.80;;;;;;5044271;28;20577;-78
2021/04/11 07:36:01;;;;;;;1.10;0.90;;;16.40;39.10;;;;;;5046999;28;20452;-79
2021/04/11 07:38:43;;;;;;;1.00;0.70;;;16.70;40.20;;;;;;5050316;28;20458;-79
2021/04/11 07:41:44;;;;;;;2.10;0.90;;;17.00;42.20;;;;;;5043921;28;20492;-78
2021/04/11 07:44:54;;;;;;;1.23;0.70;;;17.30;44.10;;;;;;5038959;28;20473;-80
2021/04/11 07:47:38;;;;;;;1.10;0.60;;;17.60;45.60;;;;;;4993905;28;20475;-79
2021/04/11 07:50:28;;;;;;;2.43;1.00;;;17.50;44.10;;;;;;5044645;28;20486;-79
2021/04/11 07:53:34;;;;;;;1.20;0.80;;;17.50;43.90;;;;;;5055590;28;20646;-80
2021/04/11 07:56:12;;;;;;;1.03;0.90;;;17.60;45.50;;;;;;5052179;28;20459;-82
2021/04/11 07:59:18;;;;;;;0.80;0.80;;;17.50;43.20;;;;;;5042687;28;20458;-81
2021/04/11 08:02:14;;;;;;;0.90;0.90;;;17.40;42.00;;;;;;5024258;28;20484;-80
2021/04/11 08:05:12;;;;;;;2.97;0.70;;;17.40;42.90;;;;;;5043344;28;20457;-78
2021/04/11 08:08:04;;;;;;;1.73;1.08;;;17.50;43.80;;;;;;5044386;28;20447;-82
2021/04/11 08:10:55;;;;;;;1.33;0.70;;;17.50;46.50;;;;;;5048474;28;20192;-80
2021/04/11 08:13:46;;;;;;;0.80;0.80;;;17.60;46.60;;;;;;5049842;28;20479;-80
2021/04/11 08:16:29;;;;;;;0.90;0.80;;;17.60;44.80;;;;;;5058722;28;20448;-79
2021/04/11 08:19:24;;;;;;;1.53;0.73;;;17.70;46.40;;;;;;5041602;28;20438;-79
2021/04/11 08:21:58;;;;;;;1.77;0.90;;;17.70;45.60;;;;;;5004667;28;20477;-79
2021/04/11 08:24:49;;;;;;;0.63;0.63;;;17.70;46.40;;;;;;5042218;28;20443;-79
2021/04/11 08:28:07;;;;;;;1.70;0.80;;;17.50;42.00;;;;;;5042843;28;20493;-80
2021/04/11 08:30:49;;;;;;;2.40;0.70;;;17.20;40.50;;;;;;5061022;28;20442;-79
2021/04/11 08:33:36;;;;;;;1.08;0.80;;;17.30;42.40;;;;;;5055360;28;21005;-81
2021/04/11 08:36:54;;;;;;;0.87;0.87;;;17.40;42.60;;;;;;5043048;28;20247;-80
2021/04/11 08:39:53;;;;;;;1.17;0.70;;;17.20;42.00;;;;;;5014460;28;20481;-80
2021/04/11 08:42:39;;;;;;;1.90;1.00;;;17.20;42.00;;;;;;5045817;28;20470;-80
2021/04/11 08:45:21;;;;;;;3.33;0.77;;;17.20;41.20;;;;;;5052395;28;20456;-80
2021/04/11 08:48:05;;;;;;;2.10;1.13;;;17.10;41.40;;;;;;5038742;28;20807;-78
2021/04/11 08:50:40;;;;;;;1.23;0.80;;;17.20;40.20;;;;;;5062848;28;20449;-80
2021/04/11 08:53:13;;;;;;;2.23;0.90;;;17.00;39.70;;;;;;5051952;28;20522;-82
2021/04/11 08:55:49;;;;;;;1.33;0.73;;;17.00;40.30;;;;;;5053592;28;20470;-79
2021/04/11 08:58:31;;;;;;;1.10;0.80;;;17.10;41.60;;;;;;5042884;28;20462;-82
2021/04/11 09:01:10;;;;;;;2.50;0.90;;;17.20;42.20;;;;;;5053247;28;20617;-80
2021/04/11 09:04:01;;;;;;;4.70;1.13;;;17.20;41.90;;;;;;5044325;28;20476;-81
2021/04/11 09:06:40;;;;;;;1.13;0.97;;;17.30;42.60;;;;;;5056778;28;20443;-79
2021/04/11 09:09:27;;;;;;;1.33;0.70;;;17.30;43.10;;;;;;5047430;28;20544;-81
2021/04/11 09:12:04;;;;;;;1.00;0.80;;;17.30;42.70;;;;;;5052151;28;20446;-81
2021/04/11 09:14:45;;;;;;;1.47;0.80;;;17.40;56.70;;;;;;5049995;28;20463;-81
2021/04/11 09:17:30;;;;;;;2.10;0.90;;;17.50;43.40;;;;;;5051771;28;20458;-83
2021/04/11 09:20:09;;;;;;;2.50;0.80;;;17.50;57.20;;;;;;5043839;28;20203;-76
2021/04/11 09:22:52;;;;;;;0.80;0.80;;;17.40;43.00;;;;;;5046408;28;20473;-78
2021/04/11 09:25:22;;;;;;;1.27;0.70;;;17.40;43.30;;;;;;5056590;28;20457;-79
2021/04/11 09:28:10;;;;;;;4.53;0.80;;;17.40;43.40;;;;;;5053834;28;20507;-77
2021/04/11 09:30:53;;;;;;;1.43;0.93;;;17.50;45.90;;;;;;5040123;28;20458;-77
2021/04/11 09:33:52;;;;;;;0.97;0.80;;;17.50;44.50;;;;;;5053703;28;20565;-76
2021/04/11 09:36:29;;;;;;;0.90;0.90;;;17.50;43.80;;;;;;5047119;28;20464;-78
2021/04/11 09:39:19;;;;;;;2.63;1.50;;;17.50;44.10;;;;;;5049250;28;20462;-76
2021/04/11 09:42:09;;;;;;;1.33;1.10;;;17.60;46.20;;;;;;5038062;28;20486;-79
2021/04/11 09:45:07;;;;;;;1.77;1.00;;;17.90;48.50;;;;;;5042910;28;20462;-77
2021/04/11 09:47:48;;;;;;;1.47;0.93;;;18.00;49.40;;;;;;5044546;28;20616;-77
2021/04/11 09:50:27;;;;;;;2.57;0.93;;;18.10;50.40;;;;;;5050874;28;20491;-78
2021/04/11 09:53:30;;;;;;;1.07;1.00;;;17.90;48.50;;;;;;5057576;28;20462;-77
2021/04/11 09:56:15;;;;;;;4.93;1.10;;;17.90;48.30;;;;;;5026048;28;20493;-76
2021/04/11 09:59:11;;;;;;;1.30;1.20;;;18.00;48.30;;;;;;5046342;28;20451;-77
2021/04/11 10:01:45;;;;;;;1.20;1.10;;;18.00;45.80;;;;;;5019760;28;20487;-76
2021/04/11 10:04:26;;;;;;;1.03;0.87;;;18.10;47.50;;;;;;5044660;28;20455;-79
2021/04/11 10:07:08;;;;;;;1.63;1.00;;;18.10;48.00;;;;;;5046829;28;20471;-76
2021/04/11 10:10:00;;;;;;;2.63;1.20;;;18.30;50.80;;;;;;5047531;28;20537;-77
2021/04/11 10:12:53;;;;;;;0.90;0.90;;;18.50;51.20;;;;;;5045875;28;20475;-78
2021/04/11 10:15:28;;;;;;;1.20;0.80;;;18.50;48.60;;;;;;5045373;28;20455;-76
2021/04/11 10:18:24;;;;;;;0.97;0.97;;;18.40;49.10;;;;;;5048637;28;20453;-76
2021/04/11 10:21:00;;;;;;;1.70;0.73;;;18.50;49.30;;;;;;5044859;28;20486;-77
2021/04/11 10:23:39;;;;;;;1.00;0.90;;;18.60;49.90;;;;;;5041746;28;20478;-77
2021/04/11 10:26:14;;;;;;;1.47;1.07;;;18.40;46.00;;;;;;5048567;28;20451;-77
2021/04/11 10:28:47;;;;;;;1.17;0.80;;;18.20;43.10;;;;;;5053441;28;21146;-75
2021/04/11 10:31:25;;;;;;;2.30;1.03;;;18.30;43.90;;;;;;5040200;28;20967;-76
2021/04/11 10:34:05;;;;;;;1.43;1.20;;;18.20;43.90;;;;;;5051592;28;20474;-76
2021/04/11 10:36:41;;;;;;;1.30;1.13;;;18.10;42.40;;;;;;5041611;28;21109;-76
2021/04/11 10:39:19;;;;;;;1.20;0.93;;;18.20;42.90;;;;;;5044791;28;20465;-77
2021/04/11 10:41:54;;;;;;;1.53;0.90;;;18.20;41.00;;;;;;5059165;28;20474;-76
2021/04/11 10:44:36;;;;;;;1.30;1.00;;;18.10;42.20;;;;;;5040435;28;20482;-76
2021/04/11 10:47:21;;;;;;;1.20;1.10;;;18.10;40.10;;;;;;5041130;28;20453;-77
2021/04/11 10:49:58;;;;;;;1.57;1.10;;;17.80;36.70;;;;;;5039092;28;20544;-77
2021/04/11 10:52:39;;;;;;;2.50;1.23;;;17.80;38.00;;;;;;5040524;28;20982;-75
2021/04/11 10:55:20;;;;;;;1.30;1.10;;;17.70;36.90;;;;;;5043153;28;20773;-77
2021/04/11 10:58:22;;;;;;;1.90;1.00;;;17.80;37.60;;;;;;5040641;28;20485;-76
2021/04/11 11:01:05;;;;;;;1.30;1.20;;;17.80;38.70;;;;;;5039781;28;20493;-77
2021/04/11 11:03:59;;;;;;;2.20;1.20;;;17.90;40.30;;;;;;5044495;28;20486;-76
2021/04/11 11:07:07;;;;;;;1.73;1.40;;;18.10;44.40;;;;;;5055191;28;20525;-74
2021/04/11 11:09:39;;;;;;;2.80;1.10;;;18.10;44.80;;;;;;5056046;28;20881;-75
2021/04/11 11:12:30;;;;;;;3.30;1.10;;;18.20;47.00;;;;;;5047260;28;20474;-76
2021/04/11 11:15:21;;;;;;;3.27;1.43;;;18.30;46.70;;;;;;5041620;28;21163;-78
2021/04/11 11:18:10;;;;;;;1.10;1.00;;;18.30;46.40;;;;;;5042233;28;20459;-76
2021/04/11 11:20:46;;;;;;;1.93;1.10;;;18.30;45.20;;;;;;5062572;28;20474;-78
2021/04/11 11:23:30;;;;;;;3.13;1.30;;;18.30;46.80;;;;;;5060712;28;20505;-77
2021/04/11 11:26:13;;;;;;;3.43;1.40;;;18.50;47.70;;;;;;5046667;28;22147;-76
2021/04/11 11:29:25;;;;;;;2.13;1.93;;;18.70;48.20;;;;;;5044597;28;20442;-78
2021/04/11 11:32:01;;;;;;;3.47;3.17;;;18.70;49.30;;;;;;5048041;28;20443;-77
2021/04/11 11:34:49;;;;;;;1.70;1.20;;;18.90;51.40;;;;;;5045107;28;20512;-77
2021/04/11 11:37:39;;;;;;;1.37;1.10;;;19.00;53.30;;;;;;5048572;28;20486;-78
2021/04/11 11:40:15;;;;;;;4.00;1.13;;;19.20;53.50;;;;;;5058689;28;20447;-79
2021/04/11 11:42:54;;;;;;;1.20;1.10;;;19.30;54.30;;;;;;5048010;28;20462;-76
2021/04/11 11:45:29;;;;;;;1.33;1.23;;;19.30;55.20;;;;;;5049971;28;21004;-78
2021/04/11 11:48:14;;;;;;;1.70;1.40;;;19.40;54.50;;;;;;5048357;28;20458;-77
2021/04/11 11:50:53;;;;;;;10.70;8.20;;;19.40;56.50;;;;;;5046869;28;20463;-78
2021/04/11 11:53:26;;;;;;;1.40;1.17;;;19.40;54.60;;;;;;5041711;28;20583;-78
2021/04/11 11:56:11;;;;;;;2.93;1.83;;;19.30;53.20;;;;;;5042699;28;20448;-80
2021/04/11 11:58:47;;;;;;;1.87;1.20;;;19.40;53.30;;;;;;5041787;28;20974;-76
2021/04/11 12:01:25;;;;;;;1.37;1.10;;;19.40;55.80;;;;;;5041469;28;20516;-76
2021/04/11 12:04:11;;;;;;;1.33;1.23;;;19.50;56.60;;;;;;5047253;28;20493;-77
2021/04/11 12:06:43;;;;;;;2.07;1.70;;;19.50;55.60;;;;;;5050724;28;20451;-77
2021/04/11 12:09:19;;;;;;;12.60;9.30;;;19.50;53.30;;;;;;5047196;28;20948;-76
2021/04/11 12:11:55;;;;;;;10.37;7.50;;;19.50;52.10;;;;;;5052132;28;20832;-74
2021/04/11 12:14:27;;;;;;;2.70;2.07;;;19.40;51.80;;;;;;5045985;28;20450;-76
2021/04/11 12:17:05;;;;;;;1.40;1.30;;;19.50;53.80;;;;;;5050178;28;20470;-76
2021/04/11 12:19:38;;;;;;;1.23;1.03;;;19.60;71.90;;;;;;5048248;28;20462;-77
2021/04/11 12:22:12;;;;;;;0.97;0.97;;;19.70;52.70;;;;;;5043392;28;20552;-77
2021/04/11 12:24:52;;;;;;;1.60;1.40;;;19.60;52.40;;;;;;5051021;28;20454;-76
2021/04/11 12:27:29;;;;;;;0.90;0.90;;;19.70;54.10;;;;;;5038532;28;20463;-77
2021/04/11 12:29:58;;;;;;;3.27;1.07;;;19.80;53.20;;;;;;5048778;28;20971;-76
2021/04/11 12:32:35;;;;;;;1.07;0.70;;;19.60;50.90;;;;;;5044864;28;20485;-78
2021/04/11 12:35:16;;;;;;;1.57;0.77;;;19.60;52.10;;;;;;5044953;28;20579;-80
2021/04/11 12:37:54;;;;;;;1.40;1.00;;;19.80;53.30;;;;;;5045687;28;20450;-79
2021/04/11 12:40:29;;;;;;;1.03;0.93;;;19.70;53.40;;;;;;5048831;28;20462;-78
2021/04/11 12:43:10;;;;;;;2.37;0.87;;;19.70;54.80;;;;;;5043827;28;20553;-80
2021/04/11 12:45:45;;;;;;;0.90;0.90;;;19.90;56.00;;;;;;5041960;28;20447;-79
2021/04/11 12:48:24;;;;;;;1.57;1.00;;;19.90;59.40;;;;;;5054345;28;20450;-80
2021/04/11 12:51:10;;;;;;;1.30;0.70;;;19.90;59.70;;;;;;5061837;28;20438;-79
2021/04/11 12:53:48;;;;;;;1.20;0.80;;;19.90;59.60;;;;;;5050132;28;20470;-80
2021/04/11 12:56:18;;;;;;;0.77;0.77;;;20.10;58.50;;;;;;5039676;28;20455;-80
2021/04/11 12:58:55;;;;;;;1.73;0.70;;;20.10;57.40;;;;;;5040862;28;20474;-80
2021/04/11 13:01:25;;;;;;;1.70;1.00;;;20.00;55.60;;;;;;5040532;28;20486;-80
2021/04/11 13:04:03;;;;;;;1.63;1.00;;;20.00;55.90;;;;;;5040884;28;20475;-79
2021/04/11 13:06:49;;;;;;;0.93;0.80;;;20.00;54.90;;;;;;5044806;28;20479;-80
2021/04/11 13:10:01;;;;;;;1.27;1.10;;;20.00;56.00;;;;;;5041076;28;20431;-80
2021/04/11 13:12:44;;;;;;;1.40;0.90;;;20.10;55.40;;;;;;5026691;28;21082;-81
2021/04/11 13:15:20;;;;;;;1.93;0.90;;;20.00;55.70;;;;;;5045316;28;20447;-80
2021/04/11 13:18:02;;;;;;;1.80;0.90;;;20.00;55.30;;;;;;5048469;28;20436;-80
2021/04/11 13:24:21;;;;;;;1.10;0.80;;;20.00;57.30;;;;;;4988436;28;20596;-81
2021/04/11 13:26:54;;;;;;;2.47;0.90;;;20.00;55.30;;;;;;4991577;28;20489;-80
2021/04/11 13:29:26;;;;;;;1.27;0.90;;;19.90;56.40;;;;;;4990156;28;20469;-79
2021/04/11 13:32:00;;;;;;;0.73;0.70;;;19.70;53.50;;;;;;4974506;28;20449;-79
2021/04/11 13:34:35;;;;;;;1.10;1.00;;;19.70;54.40;;;;;;4987002;28;21028;-78
2021/04/11 13:37:07;;;;;;;1.17;0.70;;;19.70;54.80;;;;;;4975425;28;20460;-78
2021/04/11 13:39:36;;;;;;;1.33;1.27;;;19.60;52.90;;;;;;4992033;28;20453;-78
2021/04/11 13:42:23;;;;;;;1.00;0.70;;;19.60;53.00;;;;;;4993035;28;20480;-80
2021/04/11 13:45:01;;;;;;;1.80;0.90;;;19.60;51.60;;;;;;4978775;28;20600;-79
2021/04/11 13:47:42;;;;;;;2.13;0.90;;;19.60;53.70;;;;;;4996910;28;21250;-78